Time;durP1;ratioP1;P1;durP2;ratioP2;P2;SDS_P1;SDS_P2;PMS_P1;PMS_P2;Temp;Humidity;BMP_temperature;BMP_pressure;BME280_temperature;BME280_humidity;BME280_pressure;Samples;Min_cycle;Max_cycle;Signal;HPM_P1;HPM_P2
2023/08/17 00:01:44;;;;;;;2.03;1.92;;;;;;;;;;5010245;28;20227;-81
2023/08/17 00:04:11;;;;;;;3.75;2.90;;;;;;;;;;5011404;28;20230;-81
2023/08/17 00:06:40;;;;;;;2.13;1.92;;;;;;;;;;5010311;28;20241;-81
2023/08/17 00:09:07;;;;;;;2.17;1.80;;;;;;;;;;5011313;28;20214;-81
2023/08/17 00:11:34;;;;;;;3.38;2.00;;;;;;;;;;5010836;28;20231;-81
2023/08/17 00:14:01;;;;;;;2.63;1.80;;;;;;;;;;5011207;28;20227;-81
2023/08/17 00:16:28;;;;;;;2.35;1.80;;;;;;;;;;5010737;28;20242;-81
2023/08/17 00:18:55;;;;;;;5.22;2.00;;;;;;;;;;5011260;28;20200;-81
2023/08/17 00:21:23;;;;;;;1.92;1.60;;;;;;;;;;5010896;28;20624;-81
2023/08/17 00:23:51;;;;;;;5.40;2.20;;;;;;;;;;5018005;28;20211;-82
2023/08/17 00:26:18;;;;;;;2.85;1.90;;;;;;;;;;5031347;28;20227;-82
2023/08/17 00:28:45;;;;;;;2.33;2.13;;;;;;;;;;5033233;28;20209;-81
2023/08/17 00:31:12;;;;;;;2.22;2.03;;;;;;;;;;5033522;28;20234;-81
2023/08/17 00:33:39;;;;;;;2.65;2.20;;;;;;;;;;5034746;28;20219;-81
2023/08/17 00:36:06;;;;;;;4.25;2.15;;;;;;;;;;5028768;28;20253;-82
2023/08/17 00:38:33;;;;;;;2.25;2.05;;;;;;;;;;5036853;28;20387;-81
2023/08/17 00:41:02;;;;;;;2.50;2.30;;;;;;;;;;5026359;28;20223;-82
2023/08/17 00:43:29;;;;;;;4.10;2.50;;;;;;;;;;5015328;28;20586;-82
2023/08/17 00:45:56;;;;;;;3.78;2.63;;;;;;;;;;5014103;28;20692;-82
2023/08/17 00:48:24;;;;;;;5.72;2.38;;;;;;;;;;5015339;28;20204;-82
2023/08/17 00:50:52;;;;;;;3.47;2.60;;;;;;;;;;5014251;28;20656;-82
2023/08/17 00:53:19;;;;;;;5.35;2.42;;;;;;;;;;5014809;28;20257;-82
2023/08/17 00:55:46;;;;;;;3.03;2.50;;;;;;;;;;5013796;28;20246;-83
2023/08/17 00:58:15;;;;;;;3.38;2.40;;;;;;;;;;5015202;28;20216;-82
2023/08/17 01:00:42;;;;;;;5.82;2.58;;;;;;;;;;5014159;28;20322;-82
2023/08/17 01:03:09;;;;;;;3.08;2.70;;;;;;;;;;5016475;28;20207;-82
2023/08/17 01:05:37;;;;;;;5.03;2.20;;;;;;;;;;5013791;28;20235;-82
2023/08/17 01:08:04;;;;;;;3.20;2.67;;;;;;;;;;5011091;28;20207;-81
2023/08/17 01:10:36;;;;;;;2.95;2.28;;;;;;;;;;5025191;28;20607;-82
2023/08/17 01:13:11;;;;;;;6.60;2.50;;;;;;;;;;5007012;28;20235;-82
2023/08/17 01:15:41;;;;;;;3.95;2.97;;;;;;;;;;5011252;28;20239;-81
2023/08/17 01:18:16;;;;;;;3.88;2.60;;;;;;;;;;5016798;28;20234;-81
2023/08/17 01:20:43;;;;;;;3.60;3.17;;;;;;;;;;5015567;28;20582;-83
2023/08/17 01:23:11;;;;;;;3.00;2.80;;;;;;;;;;5017085;28;20681;-82
2023/08/17 01:25:38;;;;;;;4.10;2.53;;;;;;;;;;5015550;28;20713;-82
2023/08/17 01:28:06;;;;;;;3.83;2.80;;;;;;;;;;5014728;28;20247;-83
2023/08/17 01:30:35;;;;;;;6.68;2.90;;;;;;;;;;5014252;28;20231;-81
2023/08/17 01:33:04;;;;;;;3.22;2.63;;;;;;;;;;4998384;28;20205;-83
2023/08/17 01:35:35;;;;;;;7.70;2.67;;;;;;;;;;5012874;28;20239;-83
2023/08/17 01:38:04;;;;;;;3.08;2.35;;;;;;;;;;4998105;28;20238;-82
2023/08/17 01:40:34;;;;;;;3.88;2.88;;;;;;;;;;5009813;28;20235;-81
2023/08/17 01:43:01;;;;;;;2.75;2.35;;;;;;;;;;4997827;28;20286;-82
2023/08/17 01:45:29;;;;;;;3.25;2.78;;;;;;;;;;5013616;28;20235;-82
2023/08/17 01:47:56;;;;;;;3.90;2.45;;;;;;;;;;5013575;28;20606;-82
2023/08/17 01:50:23;;;;;;;3.00;2.30;;;;;;;;;;5013284;28;20697;-82
2023/08/17 01:52:50;;;;;;;4.80;2.50;;;;;;;;;;5013511;28;20207;-82
2023/08/17 01:55:18;;;;;;;3.03;2.33;;;;;;;;;;5013129;28;20223;-83
2023/08/17 01:57:46;;;;;;;6.63;2.80;;;;;;;;;;5013565;28;20218;-82
2023/08/17 02:00:14;;;;;;;2.65;2.45;;;;;;;;;;5013130;28;20207;-83
2023/08/17 02:02:41;;;;;;;3.85;2.45;;;;;;;;;;5013657;28;20587;-82
2023/08/17 02:05:08;;;;;;;8.82;2.72;;;;;;;;;;5012723;28;20199;-83
2023/08/17 02:07:35;;;;;;;2.88;2.45;;;;;;;;;;5013220;28;20575;-82
2023/08/17 02:10:02;;;;;;;3.03;2.60;;;;;;;;;;5012716;28;20210;-85
2023/08/17 02:12:29;;;;;;;2.75;2.55;;;;;;;;;;5013121;28;20211;-83
2023/08/17 02:14:58;;;;;;;2.63;2.22;;;;;;;;;;5012861;28;20227;-82
2023/08/17 02:17:25;;;;;;;3.08;2.78;;;;;;;;;;5012453;28;20227;-83
2023/08/17 02:19:52;;;;;;;3.60;3.30;;;;;;;;;;5004764;28;20216;-83
2023/08/17 02:22:19;;;;;;;3.85;2.88;;;;;;;;;;5004499;28;20230;-82
2023/08/17 02:24:46;;;;;;;3.97;2.95;;;;;;;;;;5013469;28;20211;-82
2023/08/17 02:27:13;;;;;;;3.17;2.87;;;;;;;;;;5007798;28;20258;-82
2023/08/17 02:29:40;;;;;;;3.05;2.63;;;;;;;;;;5009695;28;20207;-83
2023/08/17 02:32:09;;;;;;;2.60;2.40;;;;;;;;;;4997967;28;20234;-82
2023/08/17 02:34:37;;;;;;;6.97;3.03;;;;;;;;;;5006235;28;20224;-82
2023/08/17 02:37:04;;;;;;;4.67;2.90;;;;;;;;;;5004793;28;20239;-83
2023/08/17 02:39:31;;;;;;;3.00;2.72;;;;;;;;;;5006045;28;20215;-82
2023/08/17 02:41:58;;;;;;;6.50;4.00;;;;;;;;;;5011956;28;20273;-82
2023/08/17 02:44:25;;;;;;;3.47;3.17;;;;;;;;;;5013020;28;20214;-82
2023/08/17 02:46:52;;;;;;;4.82;3.20;;;;;;;;;;5011606;28;20239;-82
2023/08/17 02:49:21;;;;;;;4.63;3.25;;;;;;;;;;5013043;28;20691;-82
2023/08/17 02:51:48;;;;;;;5.72;3.30;;;;;;;;;;5012577;28;20231;-82
2023/08/17 02:54:15;;;;;;;5.10;3.15;;;;;;;;;;5013064;28;20231;-84
2023/08/17 02:56:42;;;;;;;3.67;3.35;;;;;;;;;;5007844;28;20239;-82
2023/08/17 02:59:09;;;;;;;4.03;3.63;;;;;;;;;;5013147;28;20576;-82
2023/08/17 03:01:36;;;;;;;5.72;4.68;;;;;;;;;;5012418;28;20735;-82
2023/08/17 03:04:03;;;;;;;3.85;3.10;;;;;;;;;;5012848;28;20572;-82
2023/08/17 03:06:31;;;;;;;4.07;3.50;;;;;;;;;;5012094;28;20231;-82
2023/08/17 03:08:58;;;;;;;6.95;3.47;;;;;;;;;;5012883;28;20234;-82
2023/08/17 03:11:25;;;;;;;4.30;3.45;;;;;;;;;;5012051;28;20230;-82
2023/08/17 03:13:55;;;;;;;4.65;3.47;;;;;;;;;;5012607;28;20227;-82
2023/08/17 03:16:22;;;;;;;3.33;3.03;;;;;;;;;;5012269;28;20241;-82
2023/08/17 03:18:49;;;;;;;4.53;3.17;;;;;;;;;;5012673;28;20216;-82
2023/08/17 03:21:17;;;;;;;5.32;3.30;;;;;;;;;;5012076;28;20235;-82
2023/08/17 03:23:45;;;;;;;7.07;3.20;;;;;;;;;;5012630;28;20203;-82
2023/08/17 03:26:13;;;;;;;4.33;3.80;;;;;;;;;;5011844;28;20235;-82
2023/08/17 03:28:40;;;;;;;5.40;4.20;;;;;;;;;;5012376;28;20199;-82
2023/08/17 03:31:08;;;;;;;5.13;3.90;;;;;;;;;;5000713;28;20231;-82
2023/08/17 03:33:35;;;;;;;8.47;4.70;;;;;;;;;;5012440;28;20231;-82
2023/08/17 03:36:02;;;;;;;11.35;5.00;;;;;;;;;;5006016;28;20705;-82
2023/08/17 03:38:30;;;;;;;7.75;4.95;;;;;;;;;;5012072;28;20211;-82
2023/08/17 03:40:58;;;;;;;14.93;6.63;;;;;;;;;;5011484;28;20235;-82
2023/08/17 03:43:26;;;;;;;11.03;5.37;;;;;;;;;;5012225;28;20208;-82
2023/08/17 03:45:53;;;;;;;9.67;5.67;;;;;;;;;;5011532;28;20235;-82
2023/08/17 03:48:22;;;;;;;8.65;6.35;;;;;;;;;;5004155;28;20207;-82
2023/08/17 03:50:52;;;;;;;10.77;6.53;;;;;;;;;;5011600;28;20705;-82
2023/08/17 03:53:19;;;;;;;16.00;7.70;;;;;;;;;;5005639;28;20207;-82
2023/08/17 03:55:47;;;;;;;11.03;7.00;;;;;;;;;;5011417;28;20239;-82
2023/08/17 03:58:15;;;;;;;14.20;7.07;;;;;;;;;;5011385;28;20337;-82
2023/08/17 04:00:43;;;;;;;16.80;6.90;;;;;;;;;;5011362;28;20242;-82
2023/08/17 04:03:10;;;;;;;32.13;8.70;;;;;;;;;;5011743;28;20265;-82
2023/08/17 04:05:37;;;;;;;11.43;6.95;;;;;;;;;;5006993;28;20231;-83
2023/08/17 04:08:04;;;;;;;26.33;8.60;;;;;;;;;;5011616;28;20207;-82
2023/08/17 04:10:31;;;;;;;17.50;7.07;;;;;;;;;;5011523;28;20254;-82
2023/08/17 04:12:58;;;;;;;22.03;9.13;;;;;;;;;;5011939;28;20579;-81
2023/08/17 04:15:27;;;;;;;11.07;7.23;;;;;;;;;;5010944;28;20234;-80
2023/08/17 04:17:54;;;;;;;21.93;7.20;;;;;;;;;;5011770;28;20207;-80
2023/08/17 04:20:22;;;;;;;17.95;7.05;;;;;;;;;;5012090;28;20674;-80
2023/08/17 04:22:50;;;;;;;11.60;7.70;;;;;;;;;;5013789;28;20242;-80
2023/08/17 04:25:17;;;;;;;13.90;8.67;;;;;;;;;;5013473;28;20208;-80
2023/08/17 04:27:44;;;;;;;21.03;8.93;;;;;;;;;;5012351;28;20207;-82
2023/08/17 04:30:11;;;;;;;16.85;7.43;;;;;;;;;;5005868;28;20212;-81
2023/08/17 04:32:40;;;;;;;12.83;7.53;;;;;;;;;;5012065;28;20428;-81
2023/08/17 04:35:07;;;;;;;22.20;8.50;;;;;;;;;;5010766;28;20231;-83
2023/08/17 04:37:34;;;;;;;14.68;8.32;;;;;;;;;;5013577;28;20207;-81
2023/08/17 04:40:01;;;;;;;15.88;9.57;;;;;;;;;;5014947;28;20270;-81
2023/08/17 04:42:28;;;;;;;19.42;8.23;;;;;;;;;;5013500;28;20621;-80
2023/08/17 04:44:55;;;;;;;17.77;8.90;;;;;;;;;;5013608;28;20199;-80
2023/08/17 04:47:22;;;;;;;21.92;9.23;;;;;;;;;;5013369;28;20239;-80
2023/08/17 04:49:51;;;;;;;19.73;8.73;;;;;;;;;;5014113;28;20234;-81
2023/08/17 04:52:18;;;;;;;25.93;11.23;;;;;;;;;;5013358;28;20232;-80
2023/08/17 04:54:45;;;;;;;20.30;8.90;;;;;;;;;;5013761;28;20716;-80
2023/08/17 04:57:12;;;;;;;18.08;8.95;;;;;;;;;;4996940;28;20238;-79
2023/08/17 04:59:39;;;;;;;16.77;8.73;;;;;;;;;;5013576;28;20570;-80
2023/08/17 05:02:06;;;;;;;19.05;9.18;;;;;;;;;;5013137;28;20242;-80
2023/08/17 05:04:33;;;;;;;18.85;9.73;;;;;;;;;;5014876;28;20207;-81
2023/08/17 05:07:01;;;;;;;23.67;9.98;;;;;;;;;;5062495;22;20621;-88
2023/08/17 05:09:29;;;;;;;25.83;10.73;;;;;;;;;;5063622;28;20206;-89
2023/08/17 05:11:56;;;;;;;24.60;10.32;;;;;;;;;;5081317;28;20293;-89
2023/08/17 05:14:23;;;;;;;22.98;11.40;;;;;;;;;;5070872;28;20233;-89
2023/08/17 05:16:50;;;;;;;30.40;10.77;;;;;;;;;;5055612;28;20233;-89
2023/08/17 05:19:17;;;;;;;23.92;11.30;;;;;;;;;;5056049;28;20195;-88
2023/08/17 05:21:44;;;;;;;20.20;10.30;;;;;;;;;;5073108;28;20324;-88
2023/08/17 05:24:13;;;;;;;18.13;9.20;;;;;;;;;;5074175;28;20210;-88
2023/08/17 05:26:40;;;;;;;17.25;9.82;;;;;;;;;;5080666;28;20222;-88
2023/08/17 05:29:07;;;;;;;21.37;10.37;;;;;;;;;;5081301;28;20197;-88
2023/08/17 05:31:34;;;;;;;19.13;10.67;;;;;;;;;;5080827;28;20218;-88
2023/08/17 05:34:01;;;;;;;23.27;10.65;;;;;;;;;;5080862;28;20186;-88
2023/08/17 05:36:28;;;;;;;22.85;10.45;;;;;;;;;;5080083;28;20224;-88
2023/08/17 05:38:55;;;;;;;20.55;10.27;;;;;;;;;;5080567;28;20186;-88
2023/08/17 05:41:23;;;;;;;16.90;9.02;;;;;;;;;;5080083;28;20221;-88
2023/08/17 05:43:51;;;;;;;16.20;9.98;;;;;;;;;;5079845;28;20209;-88
2023/08/17 05:46:18;;;;;;;16.13;8.43;;;;;;;;;;5079241;28;20217;-88
2023/08/17 05:48:45;;;;;;;16.80;8.87;;;;;;;;;;5079886;28;20198;-89
2023/08/17 05:51:12;;;;;;;14.70;8.90;;;;;;;;;;5079326;28;20217;-89
2023/08/17 05:53:39;;;;;;;15.27;8.68;;;;;;;;;;5079686;28;20200;-89
2023/08/17 05:56:06;;;;;;;15.95;8.10;;;;;;;;;;5078678;28;20248;-88
2023/08/17 05:58:34;;;;;;;12.68;7.97;;;;;;;;;;5079553;28;20201;-89
2023/08/17 06:01:11;;;;;;;20.85;9.52;;;;;;;;;;5078810;28;20213;-89
2023/08/17 06:03:38;;;;;;;15.93;8.70;;;;;;;;;;5079556;28;20241;-89
2023/08/17 06:06:06;;;;;;;15.27;8.65;;;;;;;;;;5078456;28;20463;-89
2023/08/17 06:08:33;;;;;;;14.48;9.18;;;;;;;;;;5079349;28;20186;-89
2023/08/17 06:11:00;;;;;;;17.00;8.90;;;;;;;;;;5071069;28;20568;-88
2023/08/17 06:13:27;;;;;;;15.90;8.75;;;;;;;;;;5054169;28;20232;-88
2023/08/17 06:15:57;;;;;;;16.77;9.65;;;;;;;;;;5053775;28;20245;-88
2023/08/17 06:18:24;;;;;;;17.05;8.88;;;;;;;;;;5049931;28;20265;-88
2023/08/17 06:20:53;;;;;;;16.55;8.95;;;;;;;;;;5053531;28;20229;-88
2023/08/17 06:23:20;;;;;;;21.95;9.82;;;;;;;;;;5053782;28;20296;-89
2023/08/17 06:25:47;;;;;;;16.75;9.68;;;;;;;;;;5052879;28;20317;-89
2023/08/17 06:28:14;;;;;;;16.67;9.48;;;;;;;;;;5053623;28;20194;-88
2023/08/17 06:30:41;;;;;;;21.25;10.90;;;;;;;;;;5053822;28;20229;-88
2023/08/17 06:33:10;;;;;;;17.38;10.00;;;;;;;;;;5053688;28;20210;-88
2023/08/17 06:35:37;;;;;;;16.17;9.35;;;;;;;;;;5052554;28;20261;-80
2023/08/17 06:38:04;;;;;;;15.90;9.10;;;;;;;;;;5052728;28;20209;-80
2023/08/17 06:40:31;;;;;;;14.63;8.70;;;;;;;;;;5042748;28;20273;-80
2023/08/17 06:42:58;;;;;;;11.77;7.85;;;;;;;;;;5042679;28;20199;-79
2023/08/17 06:45:25;;;;;;;15.63;8.98;;;;;;;;;;5040589;28;20238;-80
2023/08/17 06:47:52;;;;;;;10.95;7.55;;;;;;;;;;5043037;28;20202;-79
2023/08/17 06:50:20;;;;;;;9.05;7.25;;;;;;;;;;5041814;28;20218;-80
2023/08/17 06:52:47;;;;;;;9.63;6.72;;;;;;;;;;5041211;28;20203;-79
2023/08/17 06:55:15;;;;;;;10.02;6.65;;;;;;;;;;5040389;28;20223;-81
2023/08/17 06:57:42;;;;;;;7.57;5.95;;;;;;;;;;5043898;28;20218;-81
2023/08/17 07:00:11;;;;;;;8.20;5.55;;;;;;;;;;5039711;28;20690;-81
2023/08/17 07:02:38;;;;;;;6.55;5.82;;;;;;;;;;5042099;28;20628;-81
2023/08/17 07:05:05;;;;;;;6.25;5.65;;;;;;;;;;5042974;28;20206;-81
2023/08/17 07:07:34;;;;;;;6.60;5.70;;;;;;;;;;5041177;28;20230;-80
2023/08/17 07:10:01;;;;;;;7.72;6.22;;;;;;;;;;5041240;28;20202;-81
2023/08/17 07:12:28;;;;;;;6.93;6.22;;;;;;;;;;5042489;28;20652;-81
2023/08/17 07:14:55;;;;;;;6.88;6.13;;;;;;;;;;5041211;28;20237;-81
2023/08/17 07:17:22;;;;;;;7.00;6.30;;;;;;;;;;5035772;28;20238;-81
2023/08/17 07:19:49;;;;;;;11.35;6.53;;;;;;;;;;5034817;28;20205;-82
2023/08/17 07:22:16;;;;;;;7.45;6.15;;;;;;;;;;5041662;28;20600;-82
2023/08/17 07:24:45;;;;;;;5.93;5.30;;;;;;;;;;5039930;28;20202;-82
2023/08/17 07:27:12;;;;;;;8.07;6.13;;;;;;;;;;5041154;28;20624;-81
2023/08/17 07:29:39;;;;;;;8.88;6.63;;;;;;;;;;5040604;28;20205;-82
2023/08/17 07:32:06;;;;;;;7.30;6.70;;;;;;;;;;5039517;28;20514;-82
2023/08/17 07:34:33;;;;;;;8.77;6.50;;;;;;;;;;5042252;28;20208;-82
2023/08/17 07:37:00;;;;;;;7.68;6.45;;;;;;;;;;5045166;28;20226;-82
2023/08/17 07:39:27;;;;;;;6.28;5.68;;;;;;;;;;5042192;28;20202;-83
2023/08/17 07:41:56;;;;;;;8.55;6.13;;;;;;;;;;5039171;28;20226;-82
2023/08/17 07:44:23;;;;;;;7.25;6.15;;;;;;;;;;5042133;28;20207;-81
2023/08/17 07:46:50;;;;;;;6.10;5.47;;;;;;;;;;5038909;28;20233;-81
2023/08/17 07:49:17;;;;;;;6.55;5.95;;;;;;;;;;5041099;28;20241;-81
2023/08/17 07:51:44;;;;;;;6.65;5.90;;;;;;;;;;5039591;28;20230;-81
2023/08/17 07:54:11;;;;;;;7.13;6.43;;;;;;;;;;5041792;28;20644;-81
2023/08/17 07:56:38;;;;;;;6.13;5.53;;;;;;;;;;5038731;28;20252;-81
2023/08/17 07:59:07;;;;;;;7.95;6.25;;;;;;;;;;5041807;28;20555;-81
2023/08/17 08:01:34;;;;;;;8.32;6.65;;;;;;;;;;5040126;28;20227;-81
2023/08/17 08:04:01;;;;;;;6.82;6.00;;;;;;;;;;5042669;28;20205;-81
2023/08/17 08:06:28;;;;;;;7.70;6.90;;;;;;;;;;5038557;28;20226;-81
2023/08/17 08:08:55;;;;;;;7.60;6.90;;;;;;;;;;5040648;28;20205;-82
2023/08/17 08:11:23;;;;;;;7.40;6.53;;;;;;;;;;5039050;28;20233;-82
2023/08/17 08:13:50;;;;;;;9.65;6.38;;;;;;;;;;5039684;28;20566;-82
2023/08/17 08:16:18;;;;;;;7.80;6.95;;;;;;;;;;5041435;28;20245;-82
2023/08/17 08:18:45;;;;;;;7.55;6.53;;;;;;;;;;5051014;28;20213;-81
2023/08/17 08:21:12;;;;;;;8.82;7.93;;;;;;;;;;5050631;28;20233;-81
2023/08/17 08:23:39;;;;;;;8.02;7.05;;;;;;;;;;5050715;28;20218;-81
2023/08/17 08:26:06;;;;;;;8.95;7.93;;;;;;;;;;5034397;28;20238;-82
2023/08/17 08:28:33;;;;;;;11.20;9.07;;;;;;;;;;5034205;28;20222;-81
2023/08/17 08:31:03;;;;;;;11.77;9.27;;;;;;;;;;5040471;28;20226;-81
2023/08/17 08:33:31;;;;;;;10.25;8.73;;;;;;;;;;5039709;28;20371;-82
2023/08/17 08:35:59;;;;;;;11.40;9.18;;;;;;;;;;5046647;28;20715;-81
2023/08/17 08:38:26;;;;;;;9.63;8.18;;;;;;;;;;5042237;28;20199;-81
2023/08/17 08:40:53;;;;;;;9.50;8.50;;;;;;;;;;5041150;28;20233;-82
2023/08/17 08:43:21;;;;;;;10.52;7.60;;;;;;;;;;5042801;28;20206;-81
2023/08/17 08:45:49;;;;;;;8.85;7.90;;;;;;;;;;5044179;28;20227;-82
2023/08/17 08:48:17;;;;;;;8.50;7.18;;;;;;;;;;5053809;28;20246;-82
2023/08/17 08:50:47;;;;;;;9.48;8.05;;;;;;;;;;5053345;28;20733;-81
2023/08/17 08:53:15;;;;;;;9.52;8.27;;;;;;;;;;5053677;28;20249;-82
2023/08/17 08:55:45;;;;;;;9.73;7.22;;;;;;;;;;5053061;28;20248;-82
2023/08/17 08:58:13;;;;;;;8.07;6.95;;;;;;;;;;5048289;28;20228;-81
2023/08/17 09:00:40;;;;;;;8.35;7.55;;;;;;;;;;5053340;28;20233;-82
2023/08/17 09:03:07;;;;;;;9.25;8.02;;;;;;;;;;5053556;28;20206;-82
2023/08/17 09:05:35;;;;;;;8.10;7.30;;;;;;;;;;5053176;28;20236;-82
2023/08/17 09:08:04;;;;;;;8.18;6.75;;;;;;;;;;5053198;28;20202;-82
2023/08/17 09:10:31;;;;;;;7.80;7.00;;;;;;;;;;5053104;28;20230;-82
2023/08/17 09:12:58;;;;;;;8.48;7.50;;;;;;;;;;5053794;28;20229;-82
2023/08/17 09:15:25;;;;;;;7.70;6.90;;;;;;;;;;5044693;28;20233;-82
2023/08/17 09:17:52;;;;;;;7.07;6.38;;;;;;;;;;5048904;28;20202;-81
2023/08/17 09:20:38;;;;;;;6.35;5.75;;;;;;;;;;5052618;28;20202;-82
2023/08/17 09:23:11;;;;;;;7.38;5.70;;;;;;;;;;5049812;28;20977;-82
2023/08/17 09:25:39;;;;;;;5.65;5.15;;;;;;;;;;5052691;28;20233;-82
2023/08/17 09:28:09;;;;;;;7.30;5.40;;;;;;;;;;5052999;28;20672;-81
2023/08/17 09:30:50;;;;;;;6.80;6.20;;;;;;;;;;5053344;28;20762;-81
2023/08/17 09:33:17;;;;;;;7.53;6.80;;;;;;;;;;5052729;28;20210;-82
2023/08/17 09:35:45;;;;;;;9.60;7.22;;;;;;;;;;5052461;28;20241;-82
2023/08/17 09:38:14;;;;;;;8.60;7.00;;;;;;;;;;5053220;28;20217;-80
2023/08/17 09:40:41;;;;;;;8.77;6.85;;;;;;;;;;5052860;28;20230;-82
2023/08/17 09:43:08;;;;;;;7.95;7.15;;;;;;;;;;5052448;28;20221;-82
2023/08/17 09:45:35;;;;;;;7.35;6.65;;;;;;;;;;5052572;28;20234;-81
2023/08/17 09:48:02;;;;;;;8.02;7.07;;;;;;;;;;5052863;28;20202;-81
2023/08/17 09:50:29;;;;;;;8.48;6.57;;;;;;;;;;5052302;28;20260;-82
2023/08/17 09:52:57;;;;;;;11.75;7.60;;;;;;;;;;5052390;28;20683;-82
2023/08/17 09:55:25;;;;;;;64.93;23.05;;;;;;;;;;5051138;28;20240;-82
2023/08/17 09:57:53;;;;;;;13.80;8.27;;;;;;;;;;5052710;28;20208;-82
2023/08/17 10:00:21;;;;;;;117.50;24.63;;;;;;;;;;5052215;28;20202;-82
2023/08/17 10:02:49;;;;;;;278.98;68.78;;;;;;;;;;5052815;28;20237;-82
2023/08/17 10:05:18;;;;;;;18.45;9.65;;;;;;;;;;5051778;28;20229;-82
2023/08/17 10:07:48;;;;;;;7.35;6.65;;;;;;;;;;5052450;28;20248;-82
2023/08/17 10:10:18;;;;;;;50.85;15.95;;;;;;;;;;5052214;28;20511;-82
2023/08/17 10:12:50;;;;;;;26.50;9.93;;;;;;;;;;5052792;28;20205;-82
2023/08/17 10:15:19;;;;;;;7.70;6.45;;;;;;;;;;5051526;28;20683;-82
2023/08/17 10:17:51;;;;;;;8.88;7.03;;;;;;;;;;5052361;28;20248;-82
2023/08/17 10:20:19;;;;;;;7.80;6.97;;;;;;;;;;5051310;28;20216;-82
2023/08/17 10:22:50;;;;;;;7.63;6.75;;;;;;;;;;5052781;28;20210;-82
2023/08/17 10:25:18;;;;;;;6.15;5.60;;;;;;;;;;5051402;28;20234;-82
2023/08/17 10:27:47;;;;;;;5.90;5.40;;;;;;;;;;5052357;28;20718;-81
2023/08/17 10:30:14;;;;;;;6.90;5.82;;;;;;;;;;5051541;28;20213;-82
2023/08/17 10:32:45;;;;;;;6.25;5.65;;;;;;;;;;5052297;28;20198;-82
2023/08/17 10:35:12;;;;;;;6.53;5.93;;;;;;;;;;5051156;28;20630;-82
2023/08/17 10:37:40;;;;;;;6.28;5.72;;;;;;;;;;5052242;28;20249;-82
2023/08/17 10:40:07;;;;;;;7.40;5.82;;;;;;;;;;5051539;28;20206;-82
2023/08/17 10:42:36;;;;;;;6.47;5.88;;;;;;;;;;5052016;28;20210;-82
2023/08/17 10:45:24;;;;;;;5.63;5.10;;;;;;;;;;5051752;28;20205;-82
2023/08/17 10:47:51;;;;;;;6.32;5.78;;;;;;;;;;5046445;28;20592;-81
2023/08/17 10:50:22;;;;;;;6.38;5.78;;;;;;;;;;5051151;28;20210;-82
2023/08/17 10:52:50;;;;;;;5.65;4.75;;;;;;;;;;5051641;28;20202;-81
2023/08/17 10:55:18;;;;;;;5.07;4.68;;;;;;;;;;5048329;28;20206;-82
2023/08/17 10:57:45;;;;;;;5.00;4.50;;;;;;;;;;5045826;28;20229;-82
2023/08/17 11:00:20;;;;;;;4.75;4.25;;;;;;;;;;5050811;28;20212;-82
2023/08/17 11:02:53;;;;;;;5.60;5.03;;;;;;;;;;5043625;28;20263;-82
2023/08/17 11:05:36;;;;;;;4.75;4.35;;;;;;;;;;5051235;28;20659;-82
2023/08/17 11:08:03;;;;;;;5.10;4.50;;;;;;;;;;5041009;28;20218;-83
2023/08/17 11:10:30;;;;;;;4.28;3.83;;;;;;;;;;5045857;28;20236;-83
2023/08/17 11:12:59;;;;;;;4.10;3.50;;;;;;;;;;5047340;28;20688;-83
2023/08/17 11:15:28;;;;;;;3.83;3.53;;;;;;;;;;5050379;28;20244;-87
2023/08/17 11:17:55;;;;;;;4.65;3.45;;;;;;;;;;5045059;28;20226;-87
2023/08/17 11:20:25;;;;;;;4.28;3.70;;;;;;;;;;5049374;28;20221;-88
2023/08/17 11:22:52;;;;;;;3.58;3.28;;;;;;;;;;5050499;28;20212;-87
2023/08/17 11:25:19;;;;;;;3.83;3.45;;;;;;;;;;5050785;28;20675;-87
2023/08/17 11:27:47;;;;;;;3.10;2.90;;;;;;;;;;5051324;28;20217;-87
2023/08/17 11:30:14;;;;;;;4.68;3.90;;;;;;;;;;5051038;28;20195;-87
2023/08/17 11:32:42;;;;;;;3.88;3.45;;;;;;;;;;5045691;28;20209;-87
2023/08/17 11:35:10;;;;;;;4.00;3.60;;;;;;;;;;5042661;28;20202;-87
2023/08/17 11:37:37;;;;;;;3.50;3.22;;;;;;;;;;5040454;28;20600;-87
2023/08/17 11:40:05;;;;;;;3.67;3.38;;;;;;;;;;5030444;28;20195;-87
2023/08/17 11:42:32;;;;;;;3.33;3.03;;;;;;;;;;5045522;28;20206;-88
2023/08/17 11:44:59;;;;;;;4.35;2.80;;;;;;;;;;5042725;28;20213;-88
2023/08/17 11:47:26;;;;;;;3.42;2.53;;;;;;;;;;5043433;28;20230;-88
2023/08/17 11:50:01;;;;;;;3.08;2.85;;;;;;;;;;5043129;28;20206;-87
2023/08/17 11:52:28;;;;;;;2.53;2.35;;;;;;;;;;5043593;28;20279;-87
2023/08/17 11:54:56;;;;;;;3.20;2.88;;;;;;;;;;5039592;28;20199;-89
2023/08/17 11:57:23;;;;;;;3.50;2.60;;;;;;;;;;5041941;28;20229;-89
2023/08/17 11:59:53;;;;;;;2.80;2.60;;;;;;;;;;5037565;28;20206;-88
2023/08/17 12:02:20;;;;;;;2.70;2.50;;;;;;;;;;5040598;28;20225;-88
2023/08/17 12:04:48;;;;;;;2.42;2.03;;;;;;;;;;5044833;28;20198;-88
2023/08/17 12:07:17;;;;;;;3.38;2.60;;;;;;;;;;5042156;28;20229;-88
2023/08/17 12:09:44;;;;;;;3.47;2.60;;;;;;;;;;5039788;28;20414;-88
2023/08/17 12:12:11;;;;;;;2.47;2.28;;;;;;;;;;5037176;28;20230;-88
2023/08/17 12:14:38;;;;;;;2.53;2.33;;;;;;;;;;5041665;28;20213;-88
2023/08/17 12:17:06;;;;;;;2.92;2.65;;;;;;;;;;5043531;28;20730;-88
2023/08/17 12:19:33;;;;;;;2.70;2.50;;;;;;;;;;5053768;28;20551;-88
2023/08/17 12:22:00;;;;;;;2.50;2.30;;;;;;;;;;5042693;28;20227;-88
2023/08/17 12:24:28;;;;;;;2.30;2.20;;;;;;;;;;5053602;28;20210;-89
2023/08/17 12:26:58;;;;;;;2.30;2.10;;;;;;;;;;5054374;28;20703;-89
2023/08/17 12:29:25;;;;;;;3.60;2.20;;;;;;;;;;5054808;28;20209;-88
2023/08/17 12:31:53;;;;;;;2.50;2.30;;;;;;;;;;5054132;28;20622;-89
2023/08/17 12:34:20;;;;;;;1.90;1.80;;;;;;;;;;5045256;28;20202;-88
2023/08/17 12:36:47;;;;;;;2.55;2.35;;;;;;;;;;5046961;28;20578;-87
2023/08/17 12:39:14;;;;;;;3.55;2.35;;;;;;;;;;5046388;28;20592;-87
2023/08/17 12:41:42;;;;;;;2.70;2.50;;;;;;;;;;5053947;28;20237;-88
2023/08/17 12:44:12;;;;;;;2.28;2.10;;;;;;;;;;5046891;28;20237;-88
2023/08/17 12:46:39;;;;;;;2.50;2.28;;;;;;;;;;5048640;28;20232;-88
2023/08/17 12:49:06;;;;;;;2.25;2.10;;;;;;;;;;5054754;28;20210;-89
2023/08/17 12:51:33;;;;;;;2.65;2.33;;;;;;;;;;5054381;28;20225;-88
2023/08/17 12:54:00;;;;;;;2.97;2.30;;;;;;;;;;5054632;28;20213;-88
2023/08/17 12:56:27;;;;;;;3.03;2.22;;;;;;;;;;5054050;28;20230;-90
2023/08/17 12:58:55;;;;;;;2.00;1.90;;;;;;;;;;5049253;28;20198;-89
2023/08/17 13:01:22;;;;;;;2.40;2.20;;;;;;;;;;5049050;28;20223;-89
2023/08/17 13:03:49;;;;;;;2.50;2.30;;;;;;;;;;5041580;28;20199;-89
2023/08/17 13:06:17;;;;;;;2.65;2.33;;;;;;;;;;5047764;28;20774;-89
2023/08/17 13:08:44;;;;;;;3.08;2.75;;;;;;;;;;5039338;28;20718;-89
2023/08/17 13:11:12;;;;;;;2.53;2.33;;;;;;;;;;5047302;28;20227;-89
2023/08/17 13:13:39;;;;;;;2.45;2.08;;;;;;;;;;5043445;28;20214;-89
2023/08/17 13:16:07;;;;;;;2.20;2.10;;;;;;;;;;5043550;28;20242;-89
2023/08/17 13:18:34;;;;;;;2.00;1.90;;;;;;;;;;5039746;28;20235;-89
2023/08/17 13:21:01;;;;;;;2.67;2.42;;;;;;;;;;5051180;28;20230;-89
2023/08/17 13:23:29;;;;;;;4.35;2.20;;;;;;;;;;5045752;28;20198;-89
2023/08/17 13:25:56;;;;;;;2.60;2.38;;;;;;;;;;5048088;28;20703;-89
2023/08/17 13:28:23;;;;;;;2.97;2.17;;;;;;;;;;5047977;28;20208;-89
2023/08/17 13:30:50;;;;;;;2.50;2.38;;;;;;;;;;5042846;28;20242;-88
2023/08/17 13:33:18;;;;;;;3.28;2.00;;;;;;;;;;5040362;28;20207;-88
2023/08/17 13:35:45;;;;;;;2.22;2.03;;;;;;;;;;5042352;28;20230;-88
2023/08/17 13:38:12;;;;;;;2.55;2.30;;;;;;;;;;5045641;28;20227;-88
2023/08/17 13:40:47;;;;;;;3.20;1.80;;;;;;;;;;5058159;28;20238;-85
2023/08/17 13:43:14;;;;;;;2.67;2.30;;;;;;;;;;5047217;28;20276;-88
2023/08/17 13:45:41;;;;;;;4.32;1.90;;;;;;;;;;5044140;28;20230;-87
2023/08/17 13:48:08;;;;;;;2.30;2.20;;;;;;;;;;5047515;28;20207;-87
2023/08/17 13:50:38;;;;;;;2.95;2.33;;;;;;;;;;5047284;28;20230;-87
2023/08/17 13:53:05;;;;;;;3.63;2.80;;;;;;;;;;5047443;28;20214;-87
2023/08/17 13:55:33;;;;;;;4.22;2.45;;;;;;;;;;5048376;28;20242;-87
2023/08/17 13:58:00;;;;;;;2.30;2.10;;;;;;;;;;5052802;28;20703;-87
2023/08/17 14:00:27;;;;;;;2.38;2.17;;;;;;;;;;5055426;28;20222;-87
2023/08/17 14:02:54;;;;;;;2.20;2.00;;;;;;;;;;5056874;28;20206;-87
2023/08/17 14:05:21;;;;;;;2.28;2.10;;;;;;;;;;5054273;28;20740;-87
2023/08/17 14:07:50;;;;;;;2.35;2.17;;;;;;;;;;5055902;28;20213;-87
2023/08/17 14:10:17;;;;;;;2.63;2.42;;;;;;;;;;5054275;28;20204;-87
2023/08/17 14:12:44;;;;;;;2.40;2.22;;;;;;;;;;5056346;28;20202;-87
2023/08/17 14:15:11;;;;;;;2.75;2.55;;;;;;;;;;5054757;28;20217;-87
2023/08/17 14:17:38;;;;;;;2.42;2.22;;;;;;;;;;5046877;28;20228;-87
2023/08/17 14:20:06;;;;;;;2.70;2.30;;;;;;;;;;5042134;28;20217;-87
2023/08/17 14:22:33;;;;;;;2.67;2.42;;;;;;;;;;5050604;28;20206;-87
2023/08/17 14:25:02;;;;;;;3.53;2.53;;;;;;;;;;5052471;28;20698;-87
2023/08/17 14:27:30;;;;;;;3.38;2.40;;;;;;;;;;5051670;28;20238;-87
2023/08/17 14:30:01;;;;;;;4.82;2.97;;;;;;;;;;5052378;28;20202;-87
2023/08/17 14:32:28;;;;;;;5.07;2.55;;;;;;;;;;5040247;28;20592;-87
2023/08/17 14:34:55;;;;;;;2.60;2.40;;;;;;;;;;5052119;28;20701;-87
2023/08/17 14:37:22;;;;;;;2.55;2.40;;;;;;;;;;5051502;28;20229;-87
2023/08/17 14:39:49;;;;;;;2.63;2.42;;;;;;;;;;5052341;28;20277;-87
2023/08/17 14:42:18;;;;;;;2.80;2.60;;;;;;;;;;5051661;28;20233;-87